createdAt,value
2023-03-11T09:23:58.304Z,13.78
2023-03-11T09:24:58.234Z,14.03
2023-03-11T09:25:58.252Z,14.10
2023-03-11T09:26:58.248Z,14.28
2023-03-11T09:27:58.258Z,14.29
2023-03-11T09:28:58.273Z,14.36
2023-03-11T09:29:58.276Z,14.43
2023-03-11T09:30:58.281Z,14.29
2023-03-11T09:31:58.284Z,14.11
2023-03-11T09:32:58.297Z,13.56
2023-03-11T09:33:58.304Z,12.91
2023-03-11T09:34:58.315Z,12.35
2023-03-11T09:35:58.341Z,11.81
2023-03-11T09:36:58.331Z,11.57
2023-03-11T09:37:58.344Z,11.44
2023-03-11T09:38:58.346Z,11.32
2023-03-11T09:39:58.372Z,11.15
2023-03-11T09:40:58.362Z,10.84
2023-03-11T09:41:59.333Z,10.34
2023-03-11T09:42:58.395Z,9.97
2023-03-11T09:43:58.405Z,9.64
2023-03-11T09:44:58.484Z,9.34
2023-03-11T09:45:58.407Z,9.73
2023-03-11T09:46:58.469Z,9.65
2023-03-11T09:47:58.423Z,10.04
2023-03-11T09:48:58.418Z,10.57
2023-03-11T09:49:58.441Z,10.99
2023-03-11T09:50:58.444Z,11.33
2023-03-11T09:51:58.456Z,11.81
2023-03-11T09:52:58.459Z,12.02
2023-03-11T09:53:58.462Z,12.35
2023-03-11T09:54:58.468Z,12.72
2023-03-11T09:55:58.496Z,12.93
2023-03-11T09:56:58.482Z,13.19
2023-03-11T09:57:58.494Z,13.19
2023-03-11T09:58:58.506Z,13.38
2023-03-11T09:59:58.521Z,13.05
2023-03-11T10:00:58.524Z,12.67
2023-03-11T10:01:58.589Z,12.15
2023-03-11T10:02:58.624Z,11.60
2023-03-11T10:03:58.552Z,11.07
2023-03-11T10:04:58.558Z,10.82
2023-03-11T10:05:58.567Z,10.38
2023-03-11T10:06:58.585Z,9.94
2023-03-11T10:07:58.592Z,9.72
2023-03-11T10:08:58.595Z,9.32
2023-03-11T10:09:58.618Z,9.00
2023-03-11T10:10:58.619Z,8.61
2023-03-11T10:11:58.644Z,8.48
2023-03-11T10:12:58.636Z,8.27
2023-03-11T10:13:58.633Z,8.45
2023-03-11T10:14:58.645Z,8.67
2023-03-11T10:15:58.650Z,8.74
2023-03-11T10:16:58.660Z,9.08
2023-03-11T10:17:58.669Z,9.03
2023-03-11T10:18:58.674Z,8.88
2023-03-11T10:19:58.674Z,8.76
2023-03-11T10:20:58.684Z,8.66
2023-03-11T10:21:58.698Z,8.38
2023-03-11T10:22:58.693Z,8.42
2023-03-11T10:23:58.711Z,8.31
2023-03-11T10:24:58.709Z,8.19
2023-03-11T10:25:58.718Z,8.03
2023-03-11T10:26:58.730Z,7.77
2023-03-11T10:27:58.752Z,7.60
2023-03-11T10:28:58.739Z,7.47
2023-03-11T10:29:58.742Z,7.42
2023-03-11T10:30:58.752Z,7.35
2023-03-11T10:31:58.795Z,7.17
2023-03-11T10:32:58.771Z,7.28
2023-03-11T10:33:58.769Z,7.76
2023-03-11T10:34:58.771Z,8.15
2023-03-11T10:35:58.840Z,8.41
2023-03-11T10:36:58.785Z,8.38
2023-03-11T10:37:58.793Z,8.55
2023-03-11T10:38:58.800Z,8.46
2023-03-11T10:39:58.859Z,8.74
2023-03-11T10:40:58.811Z,9.14
2023-03-11T10:41:58.818Z,9.22
2023-03-11T10:42:58.825Z,9.64
2023-03-11T10:43:58.855Z,9.80
2023-03-11T10:44:58.838Z,10.25
2023-03-11T10:45:58.864Z,10.63
2023-03-11T10:46:58.852Z,11.02
2023-03-11T10:47:58.866Z,11.63
2023-03-11T10:48:58.866Z,12.12
2023-03-11T10:49:58.875Z,12.45
2023-03-11T10:50:58.881Z,12.76
2023-03-11T10:51:58.888Z,12.79
2023-03-11T10:52:58.909Z,13.03
2023-03-11T10:53:58.918Z,13.20
2023-03-11T10:54:58.948Z,13.53
2023-03-11T10:55:58.932Z,13.38
2023-03-11T10:56:58.946Z,13.19
2023-03-11T10:57:58.956Z,12.95
2023-03-11T10:58:58.967Z,12.70
2023-03-11T10:59:58.991Z,12.75
2023-03-11T11:00:59.004Z,12.73
2023-03-11T11:01:58.996Z,12.72
2023-03-11T11:02:59.002Z,12.61
2023-03-11T11:03:59.039Z,12.31
2023-03-11T11:04:59.027Z,12.00
2023-03-11T11:05:59.049Z,11.88
2023-03-11T11:06:59.058Z,11.59
2023-03-11T11:07:59.065Z,11.10
2023-03-11T11:08:59.076Z,10.86
2023-03-11T11:09:59.086Z,10.37
2023-03-11T11:10:59.094Z,10.01
2023-03-11T11:11:59.103Z,9.65
2023-03-11T11:12:59.162Z,9.43
2023-03-11T11:13:59.121Z,9.04
2023-03-11T11:14:59.131Z,8.88
2023-03-11T11:15:59.158Z,8.66
2023-03-11T11:16:59.209Z,8.45
2023-03-11T11:17:59.161Z,8.27
2023-03-11T11:18:59.160Z,8.06
2023-03-11T11:19:59.185Z,7.83
2023-03-11T11:20:59.175Z,7.79
2023-03-11T11:21:59.191Z,7.57
2023-03-11T11:22:59.202Z,7.48
2023-03-11T11:23:59.197Z,7.42
2023-03-11T11:24:59.232Z,7.36
2023-03-11T11:25:59.210Z,7.23
2023-03-11T11:26:59.225Z,7.24
2023-03-11T11:27:59.229Z,7.23
2023-03-11T11:28:59.234Z,7.06
2023-03-11T11:29:59.239Z,7.06
2023-03-11T11:30:59.319Z,6.92
2023-03-11T11:31:59.271Z,6.88
2023-03-11T11:32:59.325Z,6.93
2023-03-11T11:33:59.258Z,6.88
2023-03-11T11:34:59.259Z,6.84
2023-03-11T11:35:59.275Z,6.93
2023-03-11T11:36:59.271Z,6.87
2023-03-11T11:37:59.281Z,7.20
2023-03-11T11:38:59.290Z,7.43
2023-03-11T11:39:59.290Z,7.95
2023-03-11T11:40:59.299Z,8.24
2023-03-11T11:41:59.329Z,8.36
2023-03-11T11:42:59.334Z,8.58
2023-03-11T11:43:59.313Z,8.61
2023-03-11T11:44:59.336Z,8.88
2023-03-11T11:45:59.352Z,8.88
2023-03-11T11:46:59.339Z,8.91
2023-03-11T11:47:59.383Z,8.99
2023-03-11T11:48:59.367Z,8.89
2023-03-11T11:49:59.357Z,8.92
2023-03-11T11:50:59.352Z,8.87
2023-03-11T11:51:59.377Z,8.87
2023-03-11T11:52:59.367Z,9.03
2023-03-11T11:53:59.384Z,9.10
2023-03-11T11:54:59.396Z,8.88
2023-03-11T11:55:59.397Z,9.25
2023-03-11T11:56:59.395Z,9.59
2023-03-11T11:57:59.402Z,9.83
2023-03-11T11:58:59.416Z,9.89
2023-03-11T11:59:59.428Z,9.97
2023-03-11T12:00:59.428Z,9.98
2023-03-11T12:01:59.443Z,10.23
2023-03-11T12:02:59.447Z,10.48
2023-03-11T12:03:59.576Z,10.40
2023-03-11T12:04:59.461Z,10.35
2023-03-11T12:05:59.607Z,10.01
2023-03-11T12:06:59.484Z,9.84
2023-03-11T12:07:59.495Z,9.61
2023-03-11T12:08:59.502Z,9.48
2023-03-11T12:10:01.968Z,9.50
2023-03-11T12:10:59.519Z,9.58
2023-03-11T12:11:59.519Z,9.36
2023-03-11T12:12:59.528Z,9.51
2023-03-11T12:13:59.579Z,9.65
2023-03-11T12:14:59.552Z,9.61
2023-03-11T12:15:59.596Z,9.50
2023-03-11T12:17:00.221Z,9.69
2023-03-11T12:17:59.571Z,9.73
2023-03-11T12:18:59.575Z,9.87
2023-03-11T12:19:59.614Z,9.82
2023-03-11T12:20:59.602Z,9.73
2023-03-11T12:21:59.606Z,9.74
2023-03-11T12:22:59.621Z,9.65
2023-03-11T12:23:59.629Z,9.82
2023-03-11T12:24:59.632Z,9.79
2023-03-11T12:25:59.636Z,9.87
2023-03-11T12:26:59.655Z,10.17
2023-03-11T12:27:59.665Z,10.40
2023-03-11T12:28:59.697Z,10.68
2023-03-11T12:29:59.712Z,10.82
2023-03-11T12:30:59.728Z,10.74
2023-03-11T12:33:07.292Z,10.90
2023-03-11T12:34:07.309Z,10.81
2023-03-11T12:35:07.335Z,10.72
2023-03-11T12:36:07.367Z,10.63
2023-03-11T12:37:07.334Z,10.38
2023-03-11T12:38:07.345Z,10.19
2023-03-11T12:39:07.363Z,10.10
2023-03-11T12:40:07.371Z,10.09
2023-03-11T12:41:07.391Z,10.07
2023-03-11T12:42:07.389Z,10.22
2023-03-11T12:43:07.392Z,10.22
2023-03-11T12:44:07.407Z,10.30
2023-03-11T12:45:07.409Z,10.33
2023-03-11T12:46:07.430Z,10.34
2023-03-11T12:47:07.442Z,10.46
2023-03-11T12:48:07.439Z,10.51
2023-03-11T12:49:07.458Z,10.35
2023-03-11T12:50:07.461Z,10.42
2023-03-11T12:51:07.509Z,10.44
2023-03-11T12:56:51.735Z,11.11
2023-03-11T12:57:51.744Z,11.26
2023-03-11T12:58:51.754Z,11.43
2023-03-11T12:59:51.760Z,11.57
2023-03-11T13:00:51.772Z,11.77
2023-03-11T13:01:51.843Z,11.81
2023-03-11T13:02:51.872Z,11.88
2023-03-11T13:03:51.826Z,12.12
2023-03-11T13:04:51.838Z,12.24
2023-03-11T13:05:51.836Z,12.22
2023-03-11T13:06:51.883Z,12.20
2023-03-11T13:07:51.873Z,12.22
2023-03-11T13:08:51.902Z,12.24
2023-03-11T13:09:51.894Z,12.09
2023-03-11T13:10:51.912Z,12.13
2023-03-11T13:11:51.918Z,11.97
2023-03-11T13:12:51.940Z,11.78
2023-03-11T13:13:51.953Z,11.63
2023-03-11T13:14:51.966Z,11.36
2023-03-11T13:15:52.040Z,11.05
2023-03-11T13:16:51.994Z,10.84
2023-03-11T13:17:52.002Z,10.48
2023-03-11T13:18:52.041Z,10.30
2023-03-11T13:19:52.027Z,10.12
2023-03-11T13:20:52.059Z,9.97
2023-03-11T13:21:52.049Z,9.94
2023-03-11T13:22:52.082Z,9.86
2023-03-11T13:23:52.073Z,9.84
2023-03-11T13:24:52.107Z,9.82
2023-03-11T13:25:52.106Z,9.79
2023-03-11T13:26:52.122Z,9.73
2023-03-11T13:27:52.129Z,9.72
2023-03-11T13:28:52.141Z,9.69
2023-03-11T13:29:52.156Z,9.72
2023-03-11T13:30:52.167Z,9.61
2023-03-11T13:31:52.211Z,9.46
2023-03-11T13:32:52.236Z,9.26
2023-03-11T13:33:52.204Z,9.14
2023-03-11T13:34:52.212Z,9.11
2023-03-11T13:35:52.253Z,8.97
2023-03-11T13:36:52.226Z,8.91
2023-03-11T13:37:52.256Z,8.78
2023-03-11T13:38:52.277Z,8.79
2023-03-11T13:39:52.268Z,8.76
2023-03-11T13:40:52.272Z,8.78
2023-03-11T13:41:52.286Z,8.63
2023-03-11T13:42:52.291Z,8.64
2023-03-11T13:43:52.307Z,8.61
2023-03-11T13:44:52.316Z,8.61
2023-03-11T13:45:52.367Z,8.58
2023-03-11T13:46:52.335Z,8.52
2023-03-11T13:47:52.346Z,8.45
2023-03-11T13:48:52.348Z,8.48
2023-03-11T13:49:52.361Z,8.66
2023-03-11T13:50:52.373Z,8.64
2023-03-11T13:51:52.421Z,8.76
2023-03-11T13:52:52.385Z,8.82
2023-03-11T13:53:52.400Z,8.88
2023-03-11T13:54:52.447Z,8.88
2023-03-11T13:55:52.418Z,8.88
2023-03-11T13:56:52.426Z,8.94
2023-03-11T13:57:52.438Z,9.13
2023-03-11T13:58:52.464Z,9.00
2023-03-11T13:59:52.465Z,9.14
2023-03-11T14:00:52.536Z,9.03
2023-03-11T14:01:52.495Z,9.02
2023-03-11T14:02:52.504Z,9.06
2023-03-11T14:03:52.544Z,9.10
2023-03-11T14:04:52.519Z,9.04
2023-03-11T14:05:52.539Z,9.26
2023-03-11T14:06:52.554Z,9.23
2023-03-11T14:07:52.565Z,9.25
2023-03-11T14:08:52.572Z,9.26
2023-03-11T14:09:52.591Z,9.26
2023-03-11T14:10:52.626Z,9.28
2023-03-11T14:11:52.614Z,9.28
2023-03-11T14:12:52.635Z,9.19
2023-03-11T14:13:52.636Z,9.11
2023-03-11T14:14:52.657Z,9.08
2023-03-11T14:15:52.661Z,9.02
2023-03-11T14:16:52.697Z,8.87
2023-03-11T14:17:52.694Z,8.70
2023-03-11T14:18:52.700Z,8.63
2023-03-11T14:19:52.712Z,8.41
2023-03-11T14:20:52.825Z,8.52
2023-03-11T14:21:52.744Z,8.53
2023-03-11T14:22:52.756Z,8.46
2023-03-11T14:23:52.757Z,8.38
2023-03-11T14:24:52.774Z,8.48
2023-03-11T14:25:52.785Z,8.58
2023-03-11T14:26:52.828Z,8.63
2023-03-11T14:27:52.812Z,8.61
2023-03-11T14:30:35.380Z,8.69
2023-03-11T14:31:35.451Z,8.67
2023-03-11T14:32:35.503Z,8.67
2023-03-11T14:33:35.432Z,8.70
2023-03-11T14:34:35.430Z,8.78
2023-03-11T14:35:35.482Z,8.78
2023-03-11T14:36:35.463Z,8.74
2023-03-11T14:37:35.485Z,8.76
2023-03-11T14:38:35.491Z,8.73
2023-03-11T14:39:35.495Z,8.71
2023-03-11T14:40:35.515Z,8.66
2023-03-11T14:41:35.527Z,8.69
2023-03-11T14:42:35.584Z,8.58
2023-03-11T14:43:35.549Z,8.64
2023-03-11T14:44:35.566Z,8.61
2023-03-11T14:45:35.611Z,8.61
2023-03-11T14:46:35.587Z,8.58
2023-03-11T14:47:35.614Z,8.63
2023-03-11T14:48:35.610Z,8.61
2023-03-11T14:49:35.631Z,8.58
2023-03-11T14:50:35.644Z,8.63
2023-03-11T14:51:35.666Z,8.61
2023-03-11T14:52:35.662Z,8.61
2023-03-11T14:53:35.688Z,8.63
2023-03-11T14:54:35.687Z,8.53
2023-03-11T14:55:35.707Z,8.51
2023-03-11T14:56:35.741Z,8.45
2023-03-11T14:57:35.729Z,8.51
2023-03-11T14:58:35.842Z,8.36
2023-03-11T14:59:35.763Z,8.30
2023-03-11T15:00:35.774Z,8.24
2023-03-11T15:01:35.809Z,8.15
2023-03-11T15:02:35.793Z,8.00
2023-03-11T15:03:35.944Z,8.06
2023-03-11T15:04:35.823Z,7.98
2023-03-11T15:05:35.837Z,8.00
2023-03-11T15:06:35.858Z,7.85
2023-03-11T15:07:35.857Z,7.90
2023-03-11T15:08:35.870Z,7.87
2023-03-11T15:09:35.885Z,7.75
2023-03-11T15:10:35.985Z,7.60
2023-03-11T15:11:35.900Z,7.63
2023-03-11T15:12:35.926Z,7.66
2023-03-11T15:13:35.927Z,7.54
2023-03-11T15:14:35.962Z,7.45
2023-03-11T15:15:35.939Z,7.45
2023-03-11T15:16:36.000Z,7.51
2023-03-11T15:17:42.779Z,7.50
2023-03-11T15:18:35.975Z,7.53
2023-03-11T15:19:35.980Z,7.54
2023-03-11T15:20:36.203Z,7.40
2023-03-11T15:21:36.001Z,7.38
2023-03-11T15:22:36.016Z,7.42
2023-03-11T15:23:36.041Z,7.43
2023-03-11T15:24:36.028Z,7.31
2023-03-11T15:25:36.044Z,7.36
2023-03-11T15:26:36.045Z,7.31
2023-03-11T15:27:36.073Z,7.31
2023-03-11T15:28:36.075Z,7.25
2023-03-11T15:29:36.086Z,7.23
2023-03-11T15:30:36.211Z,7.13
2023-03-11T15:31:36.096Z,7.06
2023-03-11T15:32:36.161Z,7.11
2023-03-11T15:33:36.111Z,7.05
2023-03-11T15:34:36.120Z,7.06
2023-03-11T15:35:36.177Z,6.97
2023-03-11T15:36:36.136Z,7.02
2023-03-11T15:37:36.150Z,6.99
2023-03-11T15:38:36.153Z,7.05
2023-03-11T15:39:36.166Z,6.95
2023-03-11T15:40:45.305Z,6.93
2023-03-11T15:41:36.179Z,6.89
2023-03-11T15:42:36.188Z,6.95
2023-03-11T15:43:36.203Z,6.97
2023-03-11T15:44:36.241Z,6.89
2023-03-11T15:45:36.205Z,6.96
2023-03-11T15:46:36.324Z,7.00
2023-03-11T15:47:36.271Z,6.88
2023-03-11T15:48:36.232Z,6.92
2023-03-11T15:49:36.241Z,6.88
2023-03-11T15:50:52.142Z,6.97
2023-03-11T15:51:36.263Z,6.95
2023-03-11T15:52:36.270Z,6.97
2023-03-11T15:53:36.269Z,6.87
2023-03-11T15:54:36.290Z,6.93
2023-03-11T15:55:36.294Z,6.87
2023-03-11T15:56:36.290Z,6.92
2023-03-11T15:57:36.297Z,6.87
2023-03-11T15:58:36.308Z,6.96
2023-03-11T15:59:36.312Z,6.96
2023-03-11T16:00:36.323Z,6.87
2023-03-11T16:01:36.326Z,6.88
2023-03-11T16:02:36.361Z,6.79
2023-03-11T16:03:36.370Z,6.95
2023-03-11T16:04:36.459Z,6.85
2023-03-11T16:05:36.354Z,6.85
2023-03-11T16:06:36.366Z,6.79
2023-03-11T16:07:39.857Z,6.92
2023-03-11T16:08:36.372Z,6.97
2023-03-11T16:09:36.385Z,6.88
2023-03-11T16:10:36.386Z,6.81
2023-03-11T16:11:36.398Z,6.77
2023-03-11T16:12:36.412Z,6.69
2023-03-11T16:13:36.411Z,6.67
2023-03-11T16:14:36.408Z,6.70
2023-03-11T16:15:36.457Z,6.63
2023-03-11T16:16:36.428Z,6.63
2023-03-11T16:17:49.024Z,6.60
2023-03-11T16:18:36.449Z,6.63
2023-03-11T16:19:36.443Z,6.62
2023-03-11T16:20:36.447Z,6.57
2023-03-11T16:21:36.462Z,6.52
2023-03-11T16:22:36.470Z,6.52
2023-03-11T16:23:50.749Z,6.49
2023-03-11T16:24:36.470Z,6.41
2023-03-11T16:25:36.475Z,6.36
2023-03-11T16:26:36.474Z,6.41
2023-03-11T16:27:36.498Z,6.41
2023-03-11T16:28:36.481Z,6.36
2023-03-11T16:29:36.499Z,6.28
2023-03-11T16:30:36.492Z,6.26
2023-03-11T16:31:36.573Z,6.26
2023-03-11T16:32:36.608Z,6.30
2023-03-11T16:33:36.514Z,6.20
2023-03-11T16:34:36.543Z,6.20
2023-03-11T16:35:36.564Z,6.20
2023-03-11T16:36:36.519Z,6.27
2023-03-11T16:37:36.521Z,6.12
2023-03-11T16:38:36.529Z,6.12
2023-03-11T16:39:36.530Z,6.14
2023-03-11T16:40:36.545Z,6.05
2023-03-11T16:41:36.545Z,6.17
2023-03-11T16:42:36.553Z,6.14
2023-03-11T16:43:36.548Z,6.12
2023-03-11T16:44:36.565Z,6.07
2023-03-11T16:45:36.564Z,6.17
2023-03-11T16:46:36.598Z,6.11
2023-03-11T16:47:36.572Z,6.11
2023-03-11T16:48:36.571Z,6.16
2023-03-11T16:49:36.582Z,6.09
2023-03-11T16:50:37.693Z,6.12
2023-03-11T16:51:36.590Z,6.12
2023-03-11T16:52:36.712Z,6.07
2023-03-11T16:53:36.597Z,6.09
2023-03-11T16:54:36.595Z,6.09
2023-03-11T16:55:36.605Z,6.11
2023-03-11T16:56:36.611Z,6.11
2023-03-11T16:57:36.613Z,6.07
2023-03-11T16:58:36.618Z,6.02
2023-03-11T16:59:36.621Z,6.01
2023-03-11T17:00:36.627Z,6.02
2023-03-11T17:01:36.647Z,6.05
2023-03-11T17:02:36.626Z,5.97
2023-03-11T17:03:42.521Z,5.99
2023-03-11T17:04:36.654Z,6.02
2023-03-11T17:05:36.643Z,6.02
2023-03-11T17:06:36.670Z,5.98
2023-03-11T17:07:39.286Z,5.90
2023-03-11T17:08:36.656Z,5.97
2023-03-11T17:09:36.656Z,5.97
2023-03-11T17:10:36.689Z,5.91
2023-03-11T17:11:36.667Z,5.87
2023-03-11T17:12:36.675Z,5.89
2023-03-11T17:13:36.665Z,5.83
2023-03-11T17:14:36.673Z,5.86
2023-03-11T17:15:36.681Z,5.87
2023-03-11T17:16:36.716Z,5.80
2023-03-11T17:17:36.693Z,5.75
2023-03-11T17:18:36.684Z,5.83
2023-03-11T17:19:36.690Z,5.71
2023-03-11T17:20:36.694Z,5.73
2023-03-11T17:21:36.708Z,5.72
2023-03-11T17:22:36.726Z,5.64
2023-03-11T17:23:36.720Z,5.61
2023-03-11T17:24:36.708Z,5.64
2023-03-11T17:25:36.716Z,5.64
2023-03-11T17:26:36.715Z,5.65
2023-03-11T17:27:36.732Z,5.65
2023-03-11T17:28:36.730Z,5.62
2023-03-11T17:29:36.741Z,5.57
2023-03-11T17:30:37.586Z,5.66
2023-03-11T17:31:36.843Z,5.54
2023-03-11T17:32:36.779Z,5.48
2023-03-11T17:33:36.746Z,5.64
2023-03-11T17:34:36.748Z,5.51
2023-03-11T17:35:36.793Z,5.62
2023-03-11T17:36:36.754Z,5.51
2023-03-11T17:37:36.757Z,5.68
2023-03-11T17:38:36.779Z,5.53
2023-03-11T17:39:36.757Z,5.48
2023-03-11T17:40:36.763Z,5.47
2023-03-11T17:41:36.761Z,5.61
2023-03-11T17:42:36.766Z,5.56
2023-03-11T17:43:36.773Z,5.51
2023-03-11T17:44:50.693Z,5.59
2023-03-11T17:45:36.781Z,5.61
2023-03-11T17:46:36.869Z,5.47
2023-03-11T17:47:36.851Z,5.68
2023-03-11T17:48:36.790Z,5.54
2023-03-11T17:49:36.811Z,5.53
2023-03-11T17:50:36.796Z,5.46
2023-03-11T17:51:36.828Z,5.53
2023-03-11T17:52:36.795Z,5.54
2023-03-11T17:53:36.802Z,5.59
2023-03-11T17:54:36.835Z,5.53
2023-03-11T17:55:36.808Z,5.47
2023-03-11T17:56:36.830Z,5.43
2023-03-11T17:57:45.190Z,5.39
2023-03-11T17:58:36.822Z,5.43
2023-03-11T17:59:36.955Z,5.43
2023-03-11T18:00:36.822Z,5.35
2023-03-11T18:01:36.836Z,5.33
2023-03-11T18:02:36.851Z,5.36
2023-03-11T18:03:36.888Z,5.36
2023-03-11T18:04:36.834Z,5.26
2023-03-11T18:05:36.867Z,5.39
2023-03-11T18:06:36.830Z,5.32
2023-03-11T18:07:36.846Z,5.30
2023-03-11T18:08:36.854Z,5.26
2023-03-11T18:09:36.848Z,5.26
2023-03-11T18:10:36.868Z,5.25
2023-03-11T18:11:36.851Z,5.20
2023-03-11T18:12:36.854Z,5.23
2023-03-11T18:13:36.851Z,5.26
2023-03-11T18:14:36.886Z,5.14
2023-03-11T18:15:36.854Z,5.20
2023-03-11T18:16:36.922Z,5.15
2023-03-11T18:17:36.870Z,5.17
2023-03-11T18:18:36.874Z,5.08
2023-03-11T18:19:36.872Z,5.15
2023-03-11T18:20:36.870Z,5.07
2023-03-11T18:21:36.907Z,5.14
2023-03-11T18:22:38.585Z,5.14
2023-03-11T18:23:36.875Z,5.21
2023-03-11T18:24:36.886Z,5.12
2023-03-11T18:25:36.879Z,5.14
2023-03-11T18:26:36.916Z,5.07
2023-03-11T18:27:36.919Z,5.14
2023-03-11T18:28:36.895Z,5.04
2023-03-11T18:29:36.898Z,5.07
2023-03-11T18:30:36.903Z,5.00
2023-03-11T18:31:36.959Z,5.11
2023-03-11T18:32:36.938Z,5.08
2023-03-11T18:33:36.929Z,5.08
2023-03-11T18:34:36.906Z,5.08
2023-03-11T18:35:36.935Z,5.02
2023-03-11T18:36:36.919Z,5.15
2023-03-11T18:37:36.920Z,5.10
2023-03-11T18:38:36.928Z,5.07
2023-03-11T18:39:36.917Z,5.04
2023-03-11T18:40:36.923Z,5.07
2023-03-11T18:41:36.928Z,5.07
2023-03-11T18:42:36.958Z,5.07
2023-03-11T18:43:36.938Z,5.05
2023-03-11T18:44:37.122Z,5.08
2023-03-11T18:45:36.936Z,5.15
2023-03-11T18:46:36.940Z,4.94
2023-03-11T18:47:36.954Z,5.04
2023-03-11T18:48:36.943Z,5.02
2023-03-11T18:49:36.944Z,4.99
2023-03-11T18:50:36.954Z,4.89
2023-03-11T18:51:36.948Z,4.97
2023-03-11T18:52:36.956Z,4.96
2023-03-11T18:53:36.965Z,4.93
2023-03-11T18:54:36.961Z,4.93
2023-03-11T18:55:36.964Z,4.94
2023-03-11T18:56:36.964Z,4.99
2023-03-11T18:57:36.963Z,4.92
2023-03-11T18:58:36.993Z,4.92
2023-03-11T18:59:36.969Z,4.93
2023-03-11T19:00:36.975Z,4.89
2023-03-11T19:01:37.090Z,4.75
2023-03-11T19:02:36.986Z,4.87
2023-03-11T19:03:36.985Z,4.90
2023-03-11T19:04:37.027Z,4.87
2023-03-11T19:05:37.001Z,4.82
2023-03-11T19:06:36.996Z,4.77
2023-03-11T19:07:36.997Z,4.70
2023-03-11T19:08:37.002Z,4.86
2023-03-11T19:09:37.004Z,4.74
2023-03-11T19:10:37.002Z,4.74
2023-03-11T19:11:37.001Z,4.71
2023-03-11T19:12:37.010Z,4.73
2023-03-11T19:13:46.357Z,4.78
2023-03-11T19:14:37.027Z,4.71
2023-03-11T19:15:37.018Z,4.75
2023-03-11T19:16:37.106Z,4.77
2023-03-11T19:17:37.020Z,4.75
2023-03-11T19:18:37.014Z,4.80
2023-03-11T19:19:37.037Z,4.75
2023-03-11T19:20:37.034Z,4.68
2023-03-11T19:21:37.024Z,4.71
2023-03-11T19:22:37.042Z,4.70
2023-03-11T19:23:37.027Z,4.71
2023-03-11T19:24:37.032Z,4.68
2023-03-11T19:25:37.041Z,4.75
2023-03-11T19:26:44.795Z,4.80
2023-03-11T19:27:37.041Z,4.68
2023-03-11T19:28:37.066Z,4.70
2023-03-11T19:29:37.041Z,4.77
2023-03-11T19:30:37.140Z,4.68
2023-03-11T19:31:37.046Z,4.63
2023-03-11T19:32:37.170Z,4.59
2023-03-11T19:33:37.056Z,4.68
2023-03-11T19:34:37.052Z,4.53
2023-03-11T19:35:37.089Z,4.63
2023-03-11T19:36:37.057Z,4.52
2023-03-11T19:37:37.064Z,4.53
2023-03-11T19:38:37.064Z,4.53
2023-03-11T19:39:37.062Z,4.63
2023-03-11T19:40:37.069Z,4.58
2023-03-11T19:41:37.084Z,4.60
2023-03-11T19:42:37.072Z,4.56
2023-03-11T19:43:37.092Z,4.59
2023-03-11T19:44:37.077Z,4.53
2023-03-11T19:45:37.080Z,4.53
2023-03-11T19:46:37.163Z,4.53
2023-03-11T19:47:37.100Z,4.59
2023-03-11T19:49:39.710Z,4.59
2023-03-11T19:50:39.672Z,4.52
2023-03-11T19:51:49.565Z,4.50
2023-03-11T19:52:39.673Z,4.49
2023-03-11T19:53:39.689Z,4.53
2023-03-11T19:54:39.670Z,4.55
2023-03-11T19:55:39.697Z,4.50
2023-03-11T19:56:39.668Z,4.52
2023-03-11T19:57:39.687Z,4.53
2023-03-11T19:58:39.693Z,4.52
2023-03-11T19:59:39.710Z,4.42
2023-03-11T20:00:39.678Z,4.42
2023-03-11T20:01:39.699Z,4.45
2023-03-11T20:02:39.730Z,4.53
2023-03-11T20:03:39.683Z,4.44
2023-03-11T20:04:42.950Z,4.37
2023-03-11T20:05:39.693Z,4.40
2023-03-11T20:06:39.747Z,4.42
2023-03-11T20:07:39.697Z,4.38
2023-03-11T20:08:39.691Z,4.38
2023-03-11T20:09:39.700Z,4.45
2023-03-11T20:30:18.563Z,4.31
2023-03-11T20:31:18.662Z,4.37
2023-03-11T20:32:18.596Z,4.44
2023-03-11T20:33:18.603Z,4.44
2023-03-11T20:34:18.617Z,4.38
2023-03-11T20:35:18.551Z,4.40
2023-03-11T20:36:18.621Z,4.44
2023-03-11T20:37:18.537Z,4.42
2023-03-11T20:38:18.591Z,4.42
2023-03-11T20:39:18.664Z,4.34
2023-03-11T20:40:18.533Z,4.34
2023-03-11T20:41:18.582Z,4.23
2023-03-11T20:42:18.542Z,4.20
2023-03-11T20:43:18.552Z,4.20
2023-03-11T20:44:18.537Z,4.19
2023-03-11T20:45:18.560Z,4.22
2023-03-11T20:46:18.767Z,4.24
2023-03-11T20:47:18.656Z,4.22
2023-03-11T20:48:18.605Z,4.23
2023-03-11T20:49:18.543Z,4.24
2023-03-11T20:50:18.551Z,4.14
2023-03-11T20:51:18.670Z,4.05
2023-03-11T20:52:18.545Z,4.06
2023-03-11T20:53:18.624Z,4.13
2023-03-11T20:54:18.615Z,4.16
2023-03-11T20:55:18.544Z,4.12
2023-03-11T20:56:18.600Z,4.10
2023-03-11T20:57:18.552Z,4.10
2023-03-11T20:58:18.639Z,4.12
2023-03-11T20:59:18.574Z,4.02
2023-03-11T21:00:18.653Z,4.04
2023-03-11T21:01:18.667Z,4.13
2023-03-11T21:02:18.638Z,4.14
2023-03-11T21:03:18.661Z,4.13
2023-03-11T21:04:18.626Z,4.08
2023-03-11T21:05:18.685Z,4.10
2023-03-11T21:06:18.692Z,4.05
2023-03-11T21:07:18.589Z,4.08
2023-03-11T21:08:18.614Z,4.14
2023-03-11T21:09:18.670Z,4.14
2023-03-11T21:10:18.568Z,4.22
2023-03-11T21:11:18.567Z,4.16
2023-03-11T21:12:18.574Z,4.14
2023-03-11T21:13:18.569Z,4.12
2023-03-11T21:14:18.598Z,4.01
2023-03-11T21:15:18.713Z,4.08
2023-03-11T21:16:18.657Z,4.05
2023-03-11T21:17:18.765Z,3.98
2023-03-11T21:18:18.618Z,4.01
2023-03-11T21:19:18.718Z,4.10
2023-03-11T21:20:18.698Z,4.04
2023-03-11T21:21:18.596Z,4.05
2023-03-11T21:22:18.639Z,4.02
2023-03-11T21:23:18.578Z,4.02
2023-03-11T21:24:18.670Z,4.02
2023-03-11T21:25:18.601Z,4.08
2023-03-11T21:26:18.658Z,4.08
2023-03-11T21:27:18.677Z,4.13
2023-03-11T21:28:18.603Z,4.16
2023-03-11T21:29:18.592Z,4.05
2023-03-11T21:30:18.589Z,4.17
2023-03-11T21:31:18.749Z,4.08
2023-03-11T21:32:18.837Z,4.12
2023-03-11T21:33:18.645Z,4.12
2023-03-11T21:34:18.685Z,3.99
2023-03-11T21:35:18.607Z,3.99
2023-03-11T21:36:18.695Z,3.99
2023-03-11T21:37:18.710Z,4.10
2023-03-11T21:38:18.777Z,4.06
2023-03-11T21:39:18.604Z,4.05
2023-03-11T21:40:18.713Z,4.01
2023-03-11T21:41:18.611Z,3.96
2023-03-11T21:42:18.665Z,3.95
2023-03-11T21:43:18.684Z,3.84
2023-03-11T21:44:18.632Z,3.88
2023-03-11T21:45:18.611Z,3.86
2023-03-11T21:46:18.675Z,3.92
2023-03-11T21:47:18.716Z,3.88
2023-03-11T21:48:18.732Z,3.88
2023-03-11T21:49:18.778Z,3.91
2023-03-11T21:50:18.637Z,3.94
2023-03-11T21:51:18.616Z,3.78
2023-03-11T21:52:18.764Z,3.91
2023-03-11T21:53:18.624Z,3.81
2023-03-11T21:54:18.685Z,3.76
2023-03-11T21:55:18.721Z,3.78
2023-03-11T21:56:18.739Z,3.74
2023-03-11T21:57:18.710Z,3.65
2023-03-11T21:58:18.684Z,3.66
2023-03-11T21:59:18.652Z,3.68
2023-03-11T22:00:18.646Z,3.68
2023-03-11T22:01:18.819Z,3.70
2023-03-11T22:02:18.739Z,3.73
2023-03-11T22:03:18.699Z,3.73
2023-03-11T22:04:18.900Z,3.68
2023-03-11T22:05:18.768Z,3.69
2023-03-11T22:06:18.693Z,3.69
2023-03-11T22:07:18.794Z,3.66
2023-03-11T22:08:18.635Z,3.68
2023-03-11T22:09:18.634Z,3.66
2023-03-11T22:10:18.664Z,3.68
2023-03-11T22:11:18.881Z,3.76
2023-03-11T22:12:18.770Z,3.76
2023-03-11T22:13:18.797Z,3.77
2023-03-11T22:14:18.781Z,3.74
2023-03-11T22:15:18.845Z,3.77
2023-03-11T22:16:18.739Z,3.77
2023-03-11T22:17:18.784Z,3.80
2023-03-11T22:18:18.738Z,3.78
2023-03-11T22:19:18.650Z,3.74
2023-03-11T22:20:18.703Z,3.78
2023-03-11T22:21:18.708Z,3.77
2023-03-11T22:22:18.666Z,3.78
2023-03-11T22:23:18.643Z,3.73
2023-03-11T22:24:18.642Z,3.63
2023-03-11T22:25:18.658Z,3.62
2023-03-11T22:26:18.656Z,3.55
2023-03-11T22:27:18.665Z,3.53
2023-03-11T22:28:18.656Z,3.48
2023-03-11T22:29:18.660Z,3.47
2023-03-11T22:30:18.661Z,3.50
2023-03-11T22:31:18.823Z,3.51
2023-03-11T22:32:18.685Z,3.55
2023-03-11T22:33:18.656Z,3.45
2023-03-11T22:34:18.666Z,3.42
2023-03-11T22:35:18.667Z,3.42
2023-03-11T22:36:18.661Z,3.37
2023-03-11T22:37:18.668Z,3.36
2023-03-11T22:38:18.697Z,3.31
2023-03-11T22:39:18.664Z,3.28
2023-03-11T22:40:18.668Z,3.23
2023-03-11T22:41:18.673Z,3.21
2023-03-11T22:42:18.677Z,3.26
2023-03-11T22:43:18.688Z,3.28
2023-03-11T22:44:18.674Z,3.21
2023-03-11T22:45:18.674Z,3.28
2023-03-11T22:46:18.751Z,3.31
2023-03-11T22:47:18.678Z,3.21
2023-03-11T22:48:18.670Z,3.22
2023-03-11T22:49:18.690Z,3.21
2023-03-11T22:50:18.676Z,3.29
2023-03-11T22:51:18.680Z,3.25
2023-03-11T22:52:18.682Z,3.21
2023-03-11T22:53:18.683Z,3.25
2023-03-11T22:54:20.768Z,3.34
2023-03-11T22:55:18.679Z,3.29
2023-03-11T22:56:18.691Z,3.32
2023-03-11T22:57:18.680Z,3.31
2023-03-11T22:58:18.688Z,3.32
2023-03-11T22:59:18.692Z,3.28
2023-03-11T23:00:18.707Z,3.26
2023-03-11T23:01:18.682Z,3.28
2023-03-11T23:02:18.691Z,3.34
2023-03-11T23:03:18.743Z,3.28
2023-03-11T23:04:18.731Z,3.23
2023-03-11T23:05:18.694Z,3.31
2023-03-11T23:06:18.690Z,3.32